CheckWX is a tool to help pilots better visualize weather data.  It is not intended as a substitute for an official pre-flight weather briefing.

12:49:09 UTC

A08 METAR
Vaiden Field Airport
Marion, Alabama, USA
Current

34 mins ago

KA08 181215Z AUTO 35013G17KT 10SM OVC013 08/06 A3016 RMK AO2 T00750057
Observed
Feb-18 @ 12:15 UTC
Wind
  • 350° at 13 KTS
  • Gusting to 17 KTS
Visibility
10 SM
Flight Rules
MVFR
Cloud Levels
  • Overcast at 1,300' AGL
Temperature
C / 46°F
Dewpoint
C / 43°F
Humidity
87%
Altimeter
30.16" Hg
Pressure
1021.32 hPa
Previous

54 mins ago

KA08 181155Z AUTO 35009G16KT 10SM OVC013 08/06 A3015 RMK AO2 T00770058 10122 20077
Observed
Feb-18 @ 11:55 UTC
Wind
  • 350° at 9 KTS
  • Gusting to 16 KTS
Visibility
10 SM
Flight Rules
MVFR
Cloud Levels
  • Overcast at 1,300' AGL
Temperature
C / 46°F
Dewpoint
C / 43°F
Humidity
87%
Altimeter
30.15" Hg
Pressure
1021.02 hPa
Previous

1 hour ago

KA08 181135Z AUTO 35012KT 10SM BKN015 OVC050 08/06 A3014 RMK AO2 T00790060
Observed
Feb-18 @ 11:35 UTC
Wind
  • 350° at 12 KTS
Visibility
10 SM
Flight Rules
MVFR
Cloud Levels
  • Broken at 1,500' AGL
  • Overcast at 5,000' AGL
Temperature
C / 46°F
Dewpoint
C / 43°F
Humidity
87%
Altimeter
30.14" Hg
Pressure
1020.62 hPa